Peabody, MA (01960)

2:38 AM EDT on October 01, 2016 (GMT -0400)
Heatherwood Lane | | Change Station

Elev 173 ft 42.53 °N, 71.00 °W | Updated 9 minutes ago

Overcast
Overcast
58.6 °F
Feels Like 58.6 °F
N
0.6
Wind Variable Wind from NW
Gusts 1.9 mph

Today
High -- | Low -- °F
--% Chance of Precip.
Yesterday
High -- | Low -- °F
Precip. -- in
Pressure 30.33 in
Visibility 6.0 miles
Clouds Overcast 900 ft
Dew Point 55 °F
Humidity 89%
Rainfall Not available.
Snow Depth Not available.
6:41 AM 6:24 PM
New Moon, 0% visible
SPECI KBVY 010621Z AUTO 04007KT 6SM BR OVC009 14/14 A3033 RMK AO2 RAE15 P0000 T01440139
Pressure 30.33 in
Visibility 6.0 miles
Clouds Overcast 900 ft
Dew Point 55 °F
Humidity 89%
Rainfall Not available.
Snow Depth Not available.
6:41 AM 6:24 PM
New Moon, 0% visible
SPECI KBVY 010621Z AUTO 04007KT 6SM BR OVC009 14/14 A3033 RMK AO2 RAE15 P0000 T01440139

10-Day Weather Forecast

Almanac

Astronomy

Oct. 01, 2016 Rise Set
Actual Time
Civil Twilight
Nautical Twilight
Astronomical Twilight
Moon
Length of Visible Light
Length of Day
Tomorrow will be .
, % of the Moon is Illuminated

Today's Extremes

State Highs State Lows

Community

WunderPhotos

Upload Photos

1,942,898 photos uploaded!

WunderBlog® & News

Nearby

Air Quality

  Air Quality AQ Index Pollutant
Not available.

Snow Depth

Station Depth Elevation

Earthquake Activity

City Distance Mag. Time & Date
Minimum magnitude displayed is 2.5.

Coastal Water Temperatures

Place Temperature

Stations

Nearby Weather Stations

Station Location Temp. Windchill Dew Point Humidity Wind Precip. Elev Updated Type
                   

Watches & Warnings

There are currently no watches in effect.